sensor_id;sensor_type;location;lat;lon;timestamp;P1;durP1;ratioP1;P2;durP2;ratioP2
18689;SDS011;9782;52.930;15.562;2022-08-23T04:50:05;19.13;;;14.97;;
18689;SDS011;9782;52.930;15.562;2022-08-23T04:52:46;21.37;;;15.37;;
18689;SDS011;9782;52.930;15.562;2022-08-23T04:58:41;20.60;;;14.80;;
18689;SDS011;9782;52.930;15.562;2022-08-23T05:01:09;19.40;;;15.00;;
18689;SDS011;9782;52.930;15.562;2022-08-23T05:03:40;18.70;;;14.15;;
18689;SDS011;9782;52.930;15.562;2022-08-23T05:06:09;19.13;;;14.43;;
18689;SDS011;9782;52.930;15.562;2022-08-23T05:08:36;28.60;;;16.80;;
18689;SDS011;9782;52.930;15.562;2022-08-23T05:11:04;21.73;;;16.60;;
18689;SDS011;9782;52.930;15.562;2022-08-23T05:16:00;22.50;;;15.60;;
18689;SDS011;9782;52.930;15.562;2022-08-23T05:18:28;19.47;;;15.80;;
18689;SDS011;9782;52.930;15.562;2022-08-23T05:20:56;19.40;;;14.77;;
18689;SDS011;9782;52.930;15.562;2022-08-23T05:23:25;19.17;;;14.50;;
18689;SDS011;9782;52.930;15.562;2022-08-23T05:25:53;19.73;;;15.17;;
18689;SDS011;9782;52.930;15.562;2022-08-23T05:28:22;24.77;;;15.57;;
18689;SDS011;9782;52.930;15.562;2022-08-23T05:30:54;19.70;;;15.87;;
18689;SDS011;9782;52.930;15.562;2022-08-23T05:33:24;19.23;;;14.90;;
18689;SDS011;9782;52.930;15.562;2022-08-23T05:35:51;22.10;;;15.83;;
18689;SDS011;9782;52.930;15.562;2022-08-23T05:38:19;23.20;;;15.90;;
18689;SDS011;9782;52.930;15.562;2022-08-23T05:40:49;18.53;;;15.07;;
18689;SDS011;9782;52.930;15.562;2022-08-23T05:43:18;19.10;;;15.40;;
18689;SDS011;9782;52.930;15.562;2022-08-23T05:45:46;21.17;;;15.73;;
18689;SDS011;9782;52.930;15.562;2022-08-23T05:48:24;20.20;;;16.07;;
18689;SDS011;9782;52.930;15.562;2022-08-23T05:50:52;19.87;;;15.97;;
18689;SDS011;9782;52.930;15.562;2022-08-23T05:53:19;19.33;;;15.63;;
18689;SDS011;9782;52.930;15.562;2022-08-23T05:55:48;24.07;;;15.17;;
18689;SDS011;9782;52.930;15.562;2022-08-23T05:58:16;18.50;;;14.50;;
18689;SDS011;9782;52.930;15.562;2022-08-23T06:00:44;18.80;;;14.87;;
18689;SDS011;9782;52.930;15.562;2022-08-23T06:03:11;18.23;;;14.63;;
18689;SDS011;9782;52.930;15.562;2022-08-23T06:05:39;18.50;;;14.70;;
18689;SDS011;9782;52.930;15.562;2022-08-23T06:08:07;20.10;;;16.10;;
18689;SDS011;9782;52.930;15.562;2022-08-23T06:10:35;18.03;;;14.13;;
18689;SDS011;9782;52.930;15.562;2022-08-23T06:13:06;20.90;;;15.87;;
18689;SDS011;9782;52.930;15.562;2022-08-23T06:15:33;21.63;;;16.43;;
18689;SDS011;9782;52.930;15.562;2022-08-23T06:18:01;21.03;;;16.03;;
18689;SDS011;9782;52.930;15.562;2022-08-23T06:20:29;19.97;;;15.27;;
18689;SDS011;9782;52.930;15.562;2022-08-23T06:22:57;23.37;;;16.27;;
18689;SDS011;9782;52.930;15.562;2022-08-23T06:25:24;21.27;;;14.73;;
18689;SDS011;9782;52.930;15.562;2022-08-23T06:27:51;19.73;;;15.17;;
18689;SDS011;9782;52.930;15.562;2022-08-23T06:30:20;20.07;;;14.20;;
18689;SDS011;9782;52.930;15.562;2022-08-23T06:32:48;22.93;;;14.87;;
18689;SDS011;9782;52.930;15.562;2022-08-23T06:35:16;23.93;;;15.47;;
18689;SDS011;9782;52.930;15.562;2022-08-23T06:37:43;19.23;;;14.70;;
18689;SDS011;9782;52.930;15.562;2022-08-23T06:40:11;20.03;;;15.50;;
18689;SDS011;9782;52.930;15.562;2022-08-23T06:42:38;20.60;;;15.47;;
18689;SDS011;9782;52.930;15.562;2022-08-23T06:45:06;21.90;;;15.50;;
18689;SDS011;9782;52.930;15.562;2022-08-23T06:47:35;21.90;;;14.73;;
18689;SDS011;9782;52.930;15.562;2022-08-23T06:50:03;21.47;;;15.43;;
18689;SDS011;9782;52.930;15.562;2022-08-23T06:52:31;20.80;;;13.67;;
18689;SDS011;9782;52.930;15.562;2022-08-23T06:54:58;19.30;;;14.25;;
18689;SDS011;9782;52.930;15.562;2022-08-23T06:57:26;19.47;;;14.27;;
18689;SDS011;9782;52.930;15.562;2022-08-23T06:59:53;20.90;;;15.90;;
18689;SDS011;9782;52.930;15.562;2022-08-23T07:02:27;19.57;;;15.87;;
18689;SDS011;9782;52.930;15.562;2022-08-23T07:05:05;20.90;;;16.20;;
18689;SDS011;9782;52.930;15.562;2022-08-23T07:07:50;18.37;;;14.50;;
18689;SDS011;9782;52.930;15.562;2022-08-23T07:10:22;19.80;;;15.60;;
18689;SDS011;9782;52.930;15.562;2022-08-23T07:12:57;29.43;;;17.27;;
18689;SDS011;9782;52.930;15.562;2022-08-23T07:15:29;19.70;;;15.10;;
18689;SDS011;9782;52.930;15.562;2022-08-23T07:17:56;17.60;;;13.75;;
18689;SDS011;9782;52.930;15.562;2022-08-23T07:20:25;17.90;;;13.53;;
18689;SDS011;9782;52.930;15.562;2022-08-23T07:23:06;20.47;;;16.47;;
18689;SDS011;9782;52.930;15.562;2022-08-23T07:28:20;18.17;;;15.73;;
18689;SDS011;9782;52.930;15.562;2022-08-23T07:30:59;18.63;;;16.00;;
18689;SDS011;9782;52.930;15.562;2022-08-23T07:33:49;22.60;;;16.40;;
18689;SDS011;9782;52.930;15.562;2022-08-23T07:36:30;19.27;;;16.70;;
18689;SDS011;9782;52.930;15.562;2022-08-23T07:39:06;21.43;;;17.50;;
18689;SDS011;9782;52.930;15.562;2022-08-23T07:41:37;20.80;;;17.00;;
18689;SDS011;9782;52.930;15.562;2022-08-23T07:44:07;21.77;;;17.27;;
18689;SDS011;9782;52.930;15.562;2022-08-23T07:46:35;33.63;;;17.23;;
18689;SDS011;9782;52.930;15.562;2022-08-23T07:49:04;21.20;;;16.73;;
18689;SDS011;9782;52.930;15.562;2022-08-23T07:51:34;24.53;;;17.10;;
18689;SDS011;9782;52.930;15.562;2022-08-23T07:54:02;21.47;;;17.57;;
18689;SDS011;9782;52.930;15.562;2022-08-23T07:56:31;20.67;;;17.53;;
18689;SDS011;9782;52.930;15.562;2022-08-23T07:58:58;27.17;;;18.13;;
18689;SDS011;9782;52.930;15.562;2022-08-23T08:01:25;19.37;;;16.97;;
18689;SDS011;9782;52.930;15.562;2022-08-23T08:03:54;21.57;;;16.50;;
18689;SDS011;9782;52.930;15.562;2022-08-23T08:06:24;20.00;;;17.30;;
18689;SDS011;9782;52.930;15.562;2022-08-23T08:08:55;23.30;;;17.80;;
18689;SDS011;9782;52.930;15.562;2022-08-23T08:11:35;21.60;;;17.43;;
18689;SDS011;9782;52.930;15.562;2022-08-23T08:19:00;697.93;;;266.73;;
18689;SDS011;9782;52.930;15.562;2022-08-23T08:29:10;692.80;;;300.13;;
18689;SDS011;9782;52.930;15.562;2022-08-23T08:31:39;694.77;;;289.30;;
18689;SDS011;9782;52.930;15.562;2022-08-23T08:34:19;687.97;;;291.53;;
18689;SDS011;9782;52.930;15.562;2022-08-23T08:36:54;685.20;;;298.90;;
18689;SDS011;9782;52.930;15.562;2022-08-23T08:39:36;682.83;;;300.73;;
18689;SDS011;9782;52.930;15.562;2022-08-23T08:42:15;674.47;;;296.73;;
18689;SDS011;9782;52.930;15.562;2022-08-23T08:45:05;678.30;;;313.20;;
18689;SDS011;9782;52.930;15.562;2022-08-23T08:47:39;678.00;;;311.87;;
18689;SDS011;9782;52.930;15.562;2022-08-23T08:50:13;671.50;;;307.40;;
18689;SDS011;9782;52.930;15.562;2022-08-23T08:52:45;670.10;;;313.63;;
18689;SDS011;9782;52.930;15.562;2022-08-23T08:55:22;662.30;;;309.53;;
18689;SDS011;9782;52.930;15.562;2022-08-23T08:57:52;666.50;;;324.63;;
18689;SDS011;9782;52.930;15.562;2022-08-23T09:00:32;669.27;;;318.60;;
18689;SDS011;9782;52.930;15.562;2022-08-23T09:03:03;670.67;;;319.23;;
18689;SDS011;9782;52.930;15.562;2022-08-23T09:05:46;665.63;;;319.63;;
18689;SDS011;9782;52.930;15.562;2022-08-23T09:08:30;675.90;;;312.03;;
18689;SDS011;9782;52.930;15.562;2022-08-23T09:11:18;683.50;;;315.80;;
18689;SDS011;9782;52.930;15.562;2022-08-23T09:14:07;674.33;;;307.70;;
18689;SDS011;9782;52.930;15.562;2022-08-23T09:16:46;669.50;;;314.80;;
18689;SDS011;9782;52.930;15.562;2022-08-23T09:19:17;633.70;;;318.63;;
18689;SDS011;9782;52.930;15.562;2022-08-23T09:21:47;623.43;;;313.67;;
18689;SDS011;9782;52.930;15.562;2022-08-23T09:24:43;616.43;;;310.70;;
18689;SDS011;9782;52.930;15.562;2022-08-23T09:27:16;608.80;;;304.13;;
18689;SDS011;9782;52.930;15.562;2022-08-23T09:29:50;613.97;;;307.73;;
18689;SDS011;9782;52.930;15.562;2022-08-23T09:32:39;610.10;;;303.73;;
18689;SDS011;9782;52.930;15.562;2022-08-23T09:35:22;609.70;;;301.13;;
18689;SDS011;9782;52.930;15.562;2022-08-23T09:37:54;608.87;;;300.93;;
18689;SDS011;9782;52.930;15.562;2022-08-23T09:40:32;628.80;;;333.40;;
18689;SDS011;9782;52.930;15.562;2022-08-23T09:43:09;671.00;;;475.57;;
18689;SDS011;9782;52.930;15.562;2022-08-23T09:45:40;687.70;;;537.40;;
18689;SDS011;9782;52.930;15.562;2022-08-23T09:48:30;664.57;;;436.53;;
18689;SDS011;9782;52.930;15.562;2022-08-23T09:51:07;678.75;;;478.05;;
18689;SDS011;9782;52.930;15.562;2022-08-23T09:54:36;687.97;;;510.53;;
18689;SDS011;9782;52.930;15.562;2022-08-23T09:57:10;674.10;;;461.83;;
18689;SDS011;9782;52.930;15.562;2022-08-23T09:59:49;669.33;;;452.27;;
18689;SDS011;9782;52.930;15.562;2022-08-23T10:02:22;676.53;;;471.17;;
18689;SDS011;9782;52.930;15.562;2022-08-23T10:04:57;670.80;;;434.03;;
18689;SDS011;9782;52.930;15.562;2022-08-23T10:07:35;674.13;;;464.60;;
18689;SDS011;9782;52.930;15.562;2022-08-23T10:10:16;677.43;;;486.07;;
18689;SDS011;9782;52.930;15.562;2022-08-23T10:12:53;646.77;;;336.53;;
18689;SDS011;9782;52.930;15.562;2022-08-23T10:15:34;623.63;;;244.90;;
18689;SDS011;9782;52.930;15.562;2022-08-23T10:18:16;620.57;;;254.90;;
18689;SDS011;9782;52.930;15.562;2022-08-23T10:20:59;675.93;;;464.37;;
18689;SDS011;9782;52.930;15.562;2022-08-23T10:23:33;680.77;;;492.20;;
18689;SDS011;9782;52.930;15.562;2022-08-23T10:26:10;678.57;;;479.93;;
18689;SDS011;9782;52.930;15.562;2022-08-23T10:28:44;662.30;;;413.77;;
18689;SDS011;9782;52.930;15.562;2022-08-23T10:31:43;633.37;;;300.80;;
18689;SDS011;9782;52.930;15.562;2022-08-23T10:37:21;620.80;;;321.13;;
18689;SDS011;9782;52.930;15.562;2022-08-23T10:40:05;616.47;;;321.40;;
18689;SDS011;9782;52.930;15.562;2022-08-23T10:42:58;616.03;;;312.63;;
18689;SDS011;9782;52.930;15.562;2022-08-23T10:45:47;619.03;;;315.37;;
18689;SDS011;9782;52.930;15.562;2022-08-23T10:48:26;610.10;;;313.20;;
18689;SDS011;9782;52.930;15.562;2022-08-23T10:51:14;619.30;;;308.07;;
18689;SDS011;9782;52.930;15.562;2022-08-23T10:53:46;618.20;;;300.33;;
18689;SDS011;9782;52.930;15.562;2022-08-23T10:56:24;613.57;;;314.27;;
18689;SDS011;9782;52.930;15.562;2022-08-23T10:58:54;618.23;;;323.07;;
18689;SDS011;9782;52.930;15.562;2022-08-23T11:01:24;616.07;;;319.97;;
18689;SDS011;9782;52.930;15.562;2022-08-23T11:04:13;611.63;;;321.07;;
18689;SDS011;9782;52.930;15.562;2022-08-23T11:06:51;609.23;;;315.97;;
18689;SDS011;9782;52.930;15.562;2022-08-23T11:12:25;623.40;;;310.87;;
18689;SDS011;9782;52.930;15.562;2022-08-23T11:15:23;633.90;;;318.57;;
18689;SDS011;9782;52.930;15.562;2022-08-23T11:18:05;643.87;;;318.20;;
18689;SDS011;9782;52.930;15.562;2022-08-23T11:21:05;642.30;;;313.37;;
18689;SDS011;9782;52.930;15.562;2022-08-23T11:27:31;625.50;;;323.50;;
18689;SDS011;9782;52.930;15.562;2022-08-23T11:33:21;641.93;;;324.47;;
18689;SDS011;9782;52.930;15.562;2022-08-23T11:35:52;653.90;;;331.03;;
18689;SDS011;9782;52.930;15.562;2022-08-23T11:42:02;654.00;;;339.97;;
18689;SDS011;9782;52.930;15.562;2022-08-23T11:47:25;631.27;;;340.10;;
18689;SDS011;9782;52.930;15.562;2022-08-23T11:50:23;636.73;;;346.63;;
18689;SDS011;9782;52.930;15.562;2022-08-23T11:53:02;634.33;;;346.93;;
18689;SDS011;9782;52.930;15.562;2022-08-23T11:55:54;647.60;;;349.67;;
18689;SDS011;9782;52.930;15.562;2022-08-23T11:58:43;648.77;;;347.03;;
18689;SDS011;9782;52.930;15.562;2022-08-23T12:01:26;662.23;;;351.30;;
18689;SDS011;9782;52.930;15.562;2022-08-23T12:03:57;672.30;;;351.23;;
18689;SDS011;9782;52.930;15.562;2022-08-23T12:06:37;675.17;;;351.30;;
18689;SDS011;9782;52.930;15.562;2022-08-23T12:09:12;680.10;;;347.37;;
18689;SDS011;9782;52.930;15.562;2022-08-23T12:12:10;699.57;;;349.13;;
18689;SDS011;9782;52.930;15.562;2022-08-23T12:14:50;675.47;;;348.90;;
18689;SDS011;9782;52.930;15.562;2022-08-23T12:20:42;678.80;;;360.10;;
18689;SDS011;9782;52.930;15.562;2022-08-23T12:23:17;658.30;;;356.97;;
18689;SDS011;9782;52.930;15.562;2022-08-23T12:26:05;657.40;;;369.33;;
18689;SDS011;9782;52.930;15.562;2022-08-23T12:28:51;637.93;;;353.07;;
18689;SDS011;9782;52.930;15.562;2022-08-23T12:31:41;613.97;;;356.93;;
18689;SDS011;9782;52.930;15.562;2022-08-23T12:34:33;611.03;;;364.20;;
18689;SDS011;9782;52.930;15.562;2022-08-23T12:37:30;607.67;;;358.63;;
18689;SDS011;9782;52.930;15.562;2022-08-23T12:40:11;611.57;;;368.63;;
18689;SDS011;9782;52.930;15.562;2022-08-23T12:42:44;613.57;;;371.40;;
18689;SDS011;9782;52.930;15.562;2022-08-23T12:45:19;613.03;;;377.67;;
18689;SDS011;9782;52.930;15.562;2022-08-23T12:47:54;615.77;;;377.90;;
18689;SDS011;9782;52.930;15.562;2022-08-23T12:50:25;613.93;;;380.67;;
18689;SDS011;9782;52.930;15.562;2022-08-23T12:52:54;621.27;;;382.03;;
18689;SDS011;9782;52.930;15.562;2022-08-23T12:55:28;625.50;;;385.30;;
18689;SDS011;9782;52.930;15.562;2022-08-23T12:57:58;625.77;;;392.87;;
18689;SDS011;9782;52.930;15.562;2022-08-23T13:00:34;614.23;;;383.43;;
18689;SDS011;9782;52.930;15.562;2022-08-23T13:03:10;619.47;;;395.50;;
18689;SDS011;9782;52.930;15.562;2022-08-23T13:05:42;635.20;;;391.87;;
18689;SDS011;9782;52.930;15.562;2022-08-23T13:08:13;645.07;;;399.50;;
18689;SDS011;9782;52.930;15.562;2022-08-23T13:10:47;636.07;;;401.33;;
18689;SDS011;9782;52.930;15.562;2022-08-23T13:13:17;640.13;;;401.33;;
18689;SDS011;9782;52.930;15.562;2022-08-23T13:15:50;634.77;;;391.93;;
18689;SDS011;9782;52.930;15.562;2022-08-23T13:18:22;631.97;;;400.97;;
18689;SDS011;9782;52.930;15.562;2022-08-23T13:23:50;622.47;;;389.47;;
18689;SDS011;9782;52.930;15.562;2022-08-23T13:26:22;614.67;;;375.43;;
18689;SDS011;9782;52.930;15.562;2022-08-23T13:29:09;619.67;;;388.17;;
18689;SDS011;9782;52.930;15.562;2022-08-23T13:31:53;613.67;;;376.73;;
18689;SDS011;9782;52.930;15.562;2022-08-23T13:37:19;609.50;;;367.43;;
18689;SDS011;9782;52.930;15.562;2022-08-23T13:39:52;616.17;;;372.30;;
18689;SDS011;9782;52.930;15.562;2022-08-23T13:42:52;617.77;;;378.57;;
18689;SDS011;9782;52.930;15.562;2022-08-23T13:45:29;617.73;;;373.63;;
18689;SDS011;9782;52.930;15.562;2022-08-23T13:48:33;614.97;;;364.50;;
18689;SDS011;9782;52.930;15.562;2022-08-23T13:53:52;616.67;;;360.20;;
18689;SDS011;9782;52.930;15.562;2022-08-23T13:56:21;611.33;;;357.37;;
18689;SDS011;9782;52.930;15.562;2022-08-23T13:59:15;611.57;;;362.10;;
18689;SDS011;9782;52.930;15.562;2022-08-23T14:02:15;613.27;;;355.27;;
18689;SDS011;9782;52.930;15.562;2022-08-23T14:08:40;615.90;;;358.17;;
18689;SDS011;9782;52.930;15.562;2022-08-23T14:11:10;610.80;;;351.63;;
18689;SDS011;9782;52.930;15.562;2022-08-23T14:14:02;612.93;;;354.13;;
18689;SDS011;9782;52.930;15.562;2022-08-23T14:16:59;616.10;;;356.03;;
18689;SDS011;9782;52.930;15.562;2022-08-23T14:19:27;614.17;;;346.47;;
18689;SDS011;9782;52.930;15.562;2022-08-23T14:21:58;614.80;;;351.83;;
18689;SDS011;9782;52.930;15.562;2022-08-23T14:24:30;616.57;;;352.17;;
18689;SDS011;9782;52.930;15.562;2022-08-23T14:26:57;615.60;;;344.27;;
18689;SDS011;9782;52.930;15.562;2022-08-23T14:29:27;613.80;;;347.90;;
18689;SDS011;9782;52.930;15.562;2022-08-23T14:31:55;614.27;;;341.77;;
18689;SDS011;9782;52.930;15.562;2022-08-23T14:34:24;614.23;;;353.03;;
18689;SDS011;9782;52.930;15.562;2022-08-23T14:36:54;614.73;;;353.00;;
18689;SDS011;9782;52.930;15.562;2022-08-23T14:49:12;611.30;;;336.23;;
18689;SDS011;9782;52.930;15.562;2022-08-23T14:51:50;613.43;;;348.67;;
18689;SDS011;9782;52.930;15.562;2022-08-23T14:54:41;613.23;;;345.67;;
18689;SDS011;9782;52.930;15.562;2022-08-23T14:57:11;608.23;;;337.00;;
18689;SDS011;9782;52.930;15.562;2022-08-23T14:59:59;609.37;;;334.23;;
18689;SDS011;9782;52.930;15.562;2022-08-23T15:02:26;614.27;;;342.83;;
18689;SDS011;9782;52.930;15.562;2022-08-23T15:07:45;612.43;;;343.63;;
18689;SDS011;9782;52.930;15.562;2022-08-23T15:10:34;609.63;;;332.13;;
18689;SDS011;9782;52.930;15.562;2022-08-23T15:13:21;610.00;;;338.73;;
18689;SDS011;9782;52.930;15.562;2022-08-23T15:15:49;612.93;;;337.23;;
18689;SDS011;9782;52.930;15.562;2022-08-23T15:18:28;609.37;;;333.77;;
18689;SDS011;9782;52.930;15.562;2022-08-23T15:21:05;612.43;;;322.90;;
18689;SDS011;9782;52.930;15.562;2022-08-23T15:23:43;612.23;;;326.37;;
18689;SDS011;9782;52.930;15.562;2022-08-23T15:26:35;616.13;;;335.07;;
18689;SDS011;9782;52.930;15.562;2022-08-23T15:29:41;620.40;;;320.27;;
18689;SDS011;9782;52.930;15.562;2022-08-23T15:32:08;641.87;;;402.93;;
18689;SDS011;9782;52.930;15.562;2022-08-23T15:34:35;650.07;;;408.43;;
18689;SDS011;9782;52.930;15.562;2022-08-23T15:37:04;638.43;;;350.03;;
18689;SDS011;9782;52.930;15.562;2022-08-23T15:39:31;616.77;;;318.17;;
18689;SDS011;9782;52.930;15.562;2022-08-23T15:42:07;645.10;;;402.27;;
18689;SDS011;9782;52.930;15.562;2022-08-23T15:45:29;697.87;;;593.13;;
18689;SDS011;9782;52.930;15.562;2022-08-23T15:48:27;700.83;;;594.33;;
18689;SDS011;9782;52.930;15.562;2022-08-23T15:51:13;706.07;;;604.17;;
18689;SDS011;9782;52.930;15.562;2022-08-23T15:54:26;711.90;;;606.03;;
18689;SDS011;9782;52.930;15.562;2022-08-23T16:03:57;692.07;;;533.00;;
18689;SDS011;9782;52.930;15.562;2022-08-23T16:06:57;705.00;;;574.07;;
18689;SDS011;9782;52.930;15.562;2022-08-23T16:09:33;698.20;;;558.00;;
18689;SDS011;9782;52.930;15.562;2022-08-23T16:12:33;642.97;;;366.90;;
18689;SDS011;9782;52.930;15.562;2022-08-23T16:15:24;662.93;;;425.07;;
18689;SDS011;9782;52.930;15.562;2022-08-23T16:19:11;671.93;;;452.80;;
18689;SDS011;9782;52.930;15.562;2022-08-23T16:21:24;644.30;;;347.37;;
18689;SDS011;9782;52.930;15.562;2022-08-23T16:24:15;628.70;;;308.83;;
18689;SDS011;9782;52.930;15.562;2022-08-23T16:27:12;631.80;;;295.83;;
18689;SDS011;9782;52.930;15.562;2022-08-23T16:30:03;646.10;;;334.10;;
18689;SDS011;9782;52.930;15.562;2022-08-23T16:32:57;637.47;;;349.20;;
18689;SDS011;9782;52.930;15.562;2022-08-23T16:35:59;687.13;;;522.50;;
18689;SDS011;9782;52.930;15.562;2022-08-23T16:38:57;684.67;;;481.43;;
18689;SDS011;9782;52.930;15.562;2022-08-23T16:41:26;632.30;;;336.07;;
18689;SDS011;9782;52.930;15.562;2022-08-23T16:46:58;620.57;;;316.60;;
18689;SDS011;9782;52.930;15.562;2022-08-23T16:49:29;644.50;;;376.83;;
18689;SDS011;9782;52.930;15.562;2022-08-23T16:51:58;641.37;;;350.17;;
18689;SDS011;9782;52.930;15.562;2022-08-23T16:55:12;661.10;;;412.97;;
18689;SDS011;9782;52.930;15.562;2022-08-23T16:57:49;638.57;;;358.83;;
18689;SDS011;9782;52.930;15.562;2022-08-23T17:00:33;655.60;;;398.00;;
18689;SDS011;9782;52.930;15.562;2022-08-23T17:03:01;661.63;;;423.67;;
18689;SDS011;9782;52.930;15.562;2022-08-23T17:05:30;677.13;;;487.53;;
18689;SDS011;9782;52.930;15.562;2022-08-23T17:08:36;688.70;;;529.17;;
18689;SDS011;9782;52.930;15.562;2022-08-23T17:11:21;672.50;;;454.70;;
18689;SDS011;9782;52.930;15.562;2022-08-23T17:13:48;671.90;;;467.43;;
18689;SDS011;9782;52.930;15.562;2022-08-23T17:16:16;694.10;;;547.63;;
18689;SDS011;9782;52.930;15.562;2022-08-23T17:18:45;684.17;;;511.77;;
18689;SDS011;9782;52.930;15.562;2022-08-23T17:21:21;687.93;;;538.97;;
18689;SDS011;9782;52.930;15.562;2022-08-23T17:23:50;695.93;;;554.47;;
18689;SDS011;9782;52.930;15.562;2022-08-23T17:26:34;693.10;;;555.60;;
18689;SDS011;9782;52.930;15.562;2022-08-23T17:29:02;701.43;;;558.30;;
18689;SDS011;9782;52.930;15.562;2022-08-23T17:32:22;692.80;;;543.57;;
18689;SDS011;9782;52.930;15.562;2022-08-23T17:34:49;694.97;;;542.40;;
18689;SDS011;9782;52.930;15.562;2022-08-23T17:37:17;689.20;;;533.83;;
18689;SDS011;9782;52.930;15.562;2022-08-23T17:39:57;692.63;;;545.00;;
18689;SDS011;9782;52.930;15.562;2022-08-23T17:42:24;697.30;;;565.87;;
